Time;durP1;ratioP1;P1;durP2;ratioP2;P2;SDS_P1;SDS_P2;PMS_P1;PMS_P2;Temp;Humidity;BMP_temperature;BMP_pressure;BME280_temperature;BME280_humidity;BME280_pressure;Samples;Min_cycle;Max_cycle;Signal;HPM_P1;HPM_P2
2022/04/05 00:01:27;;;;;;;18.83;3.60;;;9.50;99.90;;;;;;5036916;28;20045;-60
2022/04/05 00:03:53;;;;;;;13.75;4.13;;;9.50;99.90;;;;;;5041206;28;20029;-59
2022/04/05 00:06:18;;;;;;;10.35;3.75;;;9.50;99.90;;;;;;5037876;28;20040;-60
2022/04/05 00:08:44;;;;;;;18.73;5.10;;;9.50;99.90;;;;;;5022131;28;20040;-60
2022/04/05 00:11:10;;;;;;;15.10;3.83;;;9.50;99.90;;;;;;5037838;28;20041;-60
2022/04/05 00:13:35;;;;;;;9.85;3.67;;;9.50;99.90;;;;;;5038653;28;20466;-62
2022/04/05 00:16:01;;;;;;;17.90;3.30;;;9.50;99.90;;;;;;5039638;28;20467;-59
2022/04/05 00:18:26;;;;;;;23.98;4.93;;;9.50;99.90;;;;;;5037553;28;20064;-62
2022/04/05 00:20:52;;;;;;;15.25;3.85;;;9.50;99.90;;;;;;5039743;28;20037;-60
2022/04/05 00:23:19;;;;;;;26.05;5.68;;;9.60;99.90;;;;;;5037575;28;20397;-60
2022/04/05 00:25:44;;;;;;;21.05;4.15;;;9.50;99.90;;;;;;5021726;28;20485;-61
2022/04/05 00:28:10;;;;;;;16.25;4.28;;;9.50;99.90;;;;;;5038154;28;20041;-60
2022/04/05 00:30:35;;;;;;;18.35;4.15;;;9.50;99.90;;;;;;5019748;28;20033;-62
2022/04/05 00:33:01;;;;;;;14.13;4.60;;;9.40;99.90;;;;;;5039602;28;20052;-60
2022/04/05 00:35:26;;;;;;;12.18;3.80;;;9.40;99.90;;;;;;5045628;28;20037;-61
2022/04/05 00:37:52;;;;;;;19.50;4.40;;;9.40;99.90;;;;;;5048937;28;20525;-61
2022/04/05 00:40:18;;;;;;;13.38;4.60;;;9.30;99.90;;;;;;5047434;28;20033;-60
2022/04/05 00:42:44;;;;;;;9.82;3.60;;;9.20;99.90;;;;;;5051091;28;20037;-61
2022/04/05 00:45:10;;;;;;;17.75;5.50;;;9.20;99.90;;;;;;5047796;28;20382;-62
2022/04/05 00:47:37;;;;;;;12.88;4.38;;;9.10;99.90;;;;;;5048562;28;20089;-61
2022/04/05 00:50:05;;;;;;;16.10;4.70;;;9.10;99.90;;;;;;5046932;28;20028;-61
2022/04/05 00:52:31;;;;;;;14.98;4.90;;;9.00;99.90;;;;;;5048447;28;20033;-61
2022/04/05 00:54:59;;;;;;;10.60;3.85;;;9.00;99.90;;;;;;5047948;28;20033;-60
2022/04/05 00:57:25;;;;;;;11.65;4.65;;;8.90;99.90;;;;;;5048460;28;20397;-60
2022/04/05 00:59:56;;;;;;;8.35;3.72;;;8.90;99.90;;;;;;5047653;28;20032;-60
2022/04/05 01:02:25;;;;;;;10.65;3.88;;;8.90;99.90;;;;;;5044426;28;20037;-61
2022/04/05 01:04:51;;;;;;;12.23;3.15;;;8.80;99.90;;;;;;5044579;28;20033;-60
2022/04/05 01:07:18;;;;;;;8.23;2.50;;;8.80;99.90;;;;;;5047746;28;20392;-61
2022/04/05 01:09:45;;;;;;;6.13;3.08;;;8.70;99.90;;;;;;5047966;28;20028;-61
2022/04/05 01:12:13;;;;;;;8.75;2.80;;;8.70;99.90;;;;;;5047152;28;20076;-60
2022/04/05 01:14:40;;;;;;;6.82;2.28;;;8.60;99.90;;;;;;5048324;28;20041;-62
2022/04/05 01:17:06;;;;;;;4.50;1.92;;;8.60;99.90;;;;;;5047627;28;20512;-61
2022/04/05 01:19:33;;;;;;;3.25;1.70;;;8.50;99.90;;;;;;5047919;28;20040;-60
2022/04/05 01:22:00;;;;;;;7.13;1.73;;;8.50;99.90;;;;;;5046544;28;20029;-60
2022/04/05 01:24:26;;;;;;;6.50;2.95;;;8.50;99.90;;;;;;5048253;28;20126;-60
2022/04/05 01:26:53;;;;;;;3.88;1.73;;;8.50;99.90;;;;;;5047840;28;20079;-61
2022/04/05 01:29:21;;;;;;;3.72;1.60;;;8.50;99.90;;;;;;5043663;28;20397;-60
2022/04/05 01:31:51;;;;;;;1.73;1.00;;;8.50;99.90;;;;;;5042440;28;20037;-59
2022/04/05 01:34:19;;;;;;;5.75;1.08;;;8.40;99.90;;;;;;5043270;28;20044;-61
2022/04/05 01:36:49;;;;;;;2.10;0.95;;;8.40;99.90;;;;;;5047338;28;20033;-61
2022/04/05 01:39:16;;;;;;;3.78;1.35;;;8.40;99.90;;;;;;5047239;28;20037;-60
2022/04/05 01:41:42;;;;;;;2.30;1.33;;;8.40;99.90;;;;;;5047544;28;20029;-60
2022/04/05 01:44:09;;;;;;;4.30;1.17;;;8.30;99.90;;;;;;5048596;28;20369;-61
2022/04/05 01:46:35;;;;;;;4.03;1.40;;;8.30;99.90;;;;;;5047551;28;20627;-60
2022/04/05 01:49:01;;;;;;;5.15;1.65;;;8.30;99.90;;;;;;5046929;28;20104;-60
2022/04/05 01:51:27;;;;;;;2.58;1.20;;;8.30;99.90;;;;;;5046292;28;20040;-60
2022/04/05 01:53:57;;;;;;;2.00;1.08;;;8.40;99.90;;;;;;5047478;28;20053;-61
2022/04/05 01:56:23;;;;;;;2.70;1.38;;;8.40;99.90;;;;;;5046994;28;20112;-61
2022/04/05 01:58:49;;;;;;;3.63;1.60;;;8.40;99.90;;;;;;5046693;28;20580;-60
2022/04/05 02:01:15;;;;;;;5.72;1.90;;;8.40;99.90;;;;;;5042214;28;20037;-63
2022/04/05 02:03:40;;;;;;;5.13;1.88;;;8.40;99.90;;;;;;5047225;28;20060;-60
2022/04/05 02:06:08;;;;;;;8.88;2.78;;;8.40;99.90;;;;;;5047073;28;20033;-60
2022/04/05 02:08:33;;;;;;;5.43;2.20;;;8.40;99.90;;;;;;5029444;28;20494;-62
2022/04/05 02:10:59;;;;;;;7.00;2.47;;;8.40;99.90;;;;;;5046043;28;20171;-60
2022/04/05 02:13:25;;;;;;;5.75;2.92;;;8.40;99.90;;;;;;5047316;28;20389;-61
2022/04/05 02:15:50;;;;;;;10.40;3.40;;;8.40;99.90;;;;;;5029367;28;20040;-62
2022/04/05 02:18:16;;;;;;;9.55;3.45;;;8.40;99.90;;;;;;5046510;28;20041;-60
2022/04/05 02:24:04;;;;;;;7.30;3.05;;;8.30;99.90;;;;;;5044563;28;20040;-60
2022/04/05 02:26:29;;;;;;;6.82;2.90;;;8.30;99.90;;;;;;5046674;28;20053;-62
2022/04/05 02:28:55;;;;;;;8.73;3.13;;;8.30;99.90;;;;;;5046588;28;20063;-64
2022/04/05 02:31:21;;;;;;;8.48;3.40;;;8.30;99.90;;;;;;5046418;28;20025;-63
2022/04/05 02:33:47;;;;;;;8.38;3.38;;;8.30;99.90;;;;;;5047328;28;20022;-60
2022/04/05 02:36:12;;;;;;;6.68;2.83;;;8.30;99.90;;;;;;5028755;28;20037;-59
2022/04/05 02:38:38;;;;;;;6.00;2.15;;;8.30;99.90;;;;;;5046795;28;20544;-61
2022/04/05 02:41:06;;;;;;;7.90;2.38;;;8.30;99.90;;;;;;5045927;28;20055;-60
2022/04/05 02:43:33;;;;;;;5.45;2.15;;;8.30;99.90;;;;;;5050847;28;20473;-60
2022/04/05 02:45:58;;;;;;;5.05;2.20;;;8.30;99.90;;;;;;5050700;28;20080;-60
2022/04/05 02:48:24;;;;;;;6.40;2.38;;;8.30;99.90;;;;;;5045076;28;20484;-59
2022/04/05 02:50:51;;;;;;;5.50;2.20;;;8.30;99.90;;;;;;5038226;28;20150;-59
2022/04/05 02:53:17;;;;;;;5.38;1.95;;;8.30;99.90;;;;;;5041680;28;20104;-59
2022/04/05 02:55:43;;;;;;;4.40;2.15;;;8.30;99.90;;;;;;5046823;28;20024;-59
2022/04/05 02:58:09;;;;;;;5.80;2.90;;;8.30;99.90;;;;;;5049195;28;20488;-60
2022/04/05 03:00:35;;;;;;;4.78;2.72;;;8.30;99.90;;;;;;5049594;28;20067;-59
2022/04/05 03:03:01;;;;;;;7.50;2.70;;;8.30;99.90;;;;;;5049944;28;20032;-60
2022/04/05 03:05:26;;;;;;;6.72;2.92;;;8.30;99.90;;;;;;5050731;28;20036;-59
2022/04/05 03:07:52;;;;;;;8.85;2.95;;;8.30;99.90;;;;;;5050152;28;20037;-60
2022/04/05 03:10:18;;;;;;;5.47;2.45;;;8.30;99.90;;;;;;5049376;28;20029;-59
2022/04/05 03:12:43;;;;;;;7.22;2.78;;;8.30;99.90;;;;;;5050207;28;20595;-59
2022/04/05 03:15:09;;;;;;;11.50;3.45;;;8.20;99.90;;;;;;5049819;28;20507;-60
2022/04/05 03:17:42;;;;;;;6.15;2.60;;;8.30;99.90;;;;;;5050106;28;20045;-59
2022/04/05 03:20:08;;;;;;;9.90;3.42;;;8.30;99.90;;;;;;5048853;28;20033;-62
2022/04/05 03:22:33;;;;;;;6.38;2.70;;;8.30;99.90;;;;;;5049881;28;20041;-59
2022/04/05 03:24:59;;;;;;;9.57;3.28;;;8.30;99.90;;;;;;5049380;28;20037;-61
2022/04/05 03:27:24;;;;;;;8.73;4.05;;;8.30;99.90;;;;;;5050252;28;20099;-59
2022/04/05 03:29:50;;;;;;;8.75;3.80;;;8.30;99.90;;;;;;5049578;28;20037;-62
2022/04/05 03:32:15;;;;;;;7.10;3.13;;;8.30;99.90;;;;;;5049498;28;20029;-62
2022/04/05 03:34:41;;;;;;;8.50;3.10;;;8.30;99.90;;;;;;5049810;28;20033;-60
2022/04/05 03:37:07;;;;;;;9.77;3.10;;;8.30;99.90;;;;;;5049517;28;20086;-59
2022/04/05 03:39:33;;;;;;;8.48;2.85;;;8.30;99.90;;;;;;5049712;28;20026;-60
2022/04/05 03:41:59;;;;;;;6.35;3.13;;;8.30;99.90;;;;;;5049867;28;20024;-59
2022/04/05 03:44:25;;;;;;;8.38;3.08;;;8.30;99.90;;;;;;5049388;28;20045;-60
2022/04/05 03:46:52;;;;;;;8.10;2.70;;;8.30;99.90;;;;;;5049785;28;20029;-61
2022/04/05 03:49:18;;;;;;;9.23;3.85;;;8.30;99.90;;;;;;5049100;28;20036;-59
2022/04/05 03:51:43;;;;;;;9.38;3.42;;;8.30;99.90;;;;;;5048650;28;20033;-61
2022/04/05 03:54:09;;;;;;;7.28;3.05;;;8.30;99.90;;;;;;5048262;28;20044;-60
2022/04/05 03:56:35;;;;;;;7.78;3.55;;;8.30;99.90;;;;;;5049438;28;20036;-59
2022/04/05 03:59:00;;;;;;;12.68;3.45;;;8.30;99.90;;;;;;5048528;28;20048;-60
2022/04/05 04:01:26;;;;;;;7.18;3.45;;;8.30;99.90;;;;;;5048575;28;20029;-60
2022/04/05 04:03:51;;;;;;;8.77;3.40;;;8.40;99.90;;;;;;5048863;28;20029;-60
2022/04/05 04:06:17;;;;;;;11.82;3.88;;;8.40;99.90;;;;;;5048830;28;20080;-59
2022/04/05 04:08:43;;;;;;;7.72;3.33;;;8.40;99.90;;;;;;5049327;28;20031;-60
2022/04/05 04:11:08;;;;;;;11.60;3.50;;;8.40;99.90;;;;;;5048052;28;20040;-61
2022/04/05 04:13:34;;;;;;;7.72;3.63;;;8.40;99.90;;;;;;5031046;28;20082;-59
2022/04/05 04:15:59;;;;;;;9.80;3.50;;;8.40;99.90;;;;;;5049119;28;20025;-60
2022/04/05 04:18:25;;;;;;;8.40;3.53;;;8.40;99.90;;;;;;5049156;28;20044;-60
2022/04/05 04:20:50;;;;;;;11.13;4.35;;;8.40;99.90;;;;;;5048167;28;20425;-60
2022/04/05 04:23:16;;;;;;;14.23;4.93;;;8.50;99.90;;;;;;5048412;28;20033;-61
2022/04/05 04:25:42;;;;;;;16.52;4.80;;;8.50;99.90;;;;;;5048891;28;20167;-59
2022/04/05 04:28:09;;;;;;;13.00;4.70;;;8.50;99.90;;;;;;5048508;28;20091;-60
2022/04/05 04:30:37;;;;;;;14.40;5.78;;;8.60;99.90;;;;;;5045833;28;20033;-59
2022/04/05 04:33:03;;;;;;;10.63;4.88;;;8.70;99.90;;;;;;5040057;28;20033;-59
2022/04/05 04:35:29;;;;;;;11.32;4.55;;;8.70;99.90;;;;;;5023255;28;20037;-60
2022/04/05 04:37:56;;;;;;;11.90;4.22;;;8.70;99.90;;;;;;5039403;28;20048;-59
2022/04/05 04:40:21;;;;;;;11.50;5.15;;;8.80;99.90;;;;;;5035273;28;20033;-59
2022/04/05 04:42:47;;;;;;;12.93;4.30;;;8.80;99.90;;;;;;5045326;28;20516;-62
2022/04/05 04:45:13;;;;;;;17.52;4.43;;;8.90;99.90;;;;;;5039043;28;20037;-59
2022/04/05 04:47:39;;;;;;;9.88;4.28;;;8.90;99.90;;;;;;5038948;28;20400;-61
2022/04/05 04:50:07;;;;;;;9.48;4.63;;;9.00;99.90;;;;;;5040501;28;20033;-60
2022/04/05 04:52:32;;;;;;;7.55;4.25;;;9.00;99.90;;;;;;5039897;28;20036;-60
2022/04/05 04:54:58;;;;;;;11.88;4.85;;;9.00;99.90;;;;;;5038209;28;20036;-59
2022/04/05 04:57:25;;;;;;;12.30;4.70;;;9.10;99.90;;;;;;5038169;28;20045;-61
2022/04/05 04:59:52;;;;;;;10.88;4.63;;;9.00;99.90;;;;;;5032952;28;20037;-59
2022/04/05 05:02:17;;;;;;;17.13;5.30;;;9.10;99.90;;;;;;5040101;28;20124;-61
2022/04/05 05:04:43;;;;;;;17.75;6.65;;;9.10;99.90;;;;;;5041160;28;20945;-60
2022/04/05 05:07:09;;;;;;;15.45;5.28;;;9.10;99.90;;;;;;5038973;28;20620;-60
2022/04/05 05:09:34;;;;;;;14.02;5.63;;;9.20;99.90;;;;;;5042478;28;20404;-59
2022/04/05 05:12:01;;;;;;;18.88;5.35;;;9.20;99.90;;;;;;5038865;28;20048;-62
2022/04/05 05:14:27;;;;;;;24.40;6.03;;;9.20;99.90;;;;;;5041423;28;20042;-60
2022/04/05 05:16:54;;;;;;;16.45;5.13;;;9.20;99.90;;;;;;5020107;28;20568;-61
2022/04/05 05:19:22;;;;;;;13.05;5.75;;;9.20;99.90;;;;;;5041132;28;20033;-60
2022/04/05 05:21:48;;;;;;;19.25;5.95;;;9.30;99.90;;;;;;5038008;28;20504;-59
2022/04/05 05:24:13;;;;;;;14.68;4.93;;;9.30;99.90;;;;;;5041461;28;20501;-61
2022/04/05 05:26:39;;;;;;;11.13;4.57;;;9.30;99.90;;;;;;5039964;28;20041;-61
2022/04/05 05:29:05;;;;;;;15.90;5.38;;;9.30;99.90;;;;;;5041595;28;20401;-60
2022/04/05 05:31:31;;;;;;;20.23;4.28;;;9.30;99.90;;;;;;5041088;28;20067;-59
2022/04/05 05:33:56;;;;;;;11.02;4.55;;;9.40;99.90;;;;;;5039967;28;20081;-62
2022/04/05 05:36:22;;;;;;;9.88;4.30;;;9.30;99.90;;;;;;5039079;28;20037;-59
2022/04/05 05:38:47;;;;;;;15.02;4.38;;;9.30;99.90;;;;;;5024097;28;20031;-60
2022/04/05 05:41:13;;;;;;;16.58;5.07;;;9.30;99.90;;;;;;5040661;28;20060;-59
2022/04/05 05:43:40;;;;;;;14.18;4.40;;;9.30;99.90;;;;;;5042094;28;20025;-59
2022/04/05 05:46:06;;;;;;;16.73;5.63;;;9.40;99.90;;;;;;5041756;28;20040;-60
2022/04/05 05:48:33;;;;;;;10.30;4.18;;;9.40;99.90;;;;;;5034784;28;20026;-60
2022/04/05 05:50:59;;;;;;;11.68;4.43;;;9.40;99.90;;;;;;5046406;28;20029;-60
2022/04/05 05:53:24;;;;;;;11.55;4.00;;;9.40;99.90;;;;;;5041739;28;20051;-60
2022/04/05 05:55:50;;;;;;;12.75;3.65;;;9.50;99.90;;;;;;5043001;28;20520;-61
2022/04/05 05:58:16;;;;;;;12.65;3.65;;;9.50;99.90;;;;;;5038784;28;20091;-61
2022/04/05 06:00:41;;;;;;;10.13;4.32;;;9.50;99.90;;;;;;5043536;28;20025;-63
2022/04/05 06:03:10;;;;;;;13.35;3.88;;;9.50;99.90;;;;;;5042573;28;20036;-61
2022/04/05 06:05:36;;;;;;;11.15;3.85;;;9.50;99.90;;;;;;5045390;28;20545;-59
2022/04/05 06:08:02;;;;;;;10.65;3.80;;;9.60;99.90;;;;;;5039556;28;20037;-60
2022/04/05 06:10:28;;;;;;;8.65;3.42;;;9.60;99.90;;;;;;5040070;28;20033;-62
2022/04/05 06:12:55;;;;;;;9.50;3.22;;;9.60;99.90;;;;;;5041673;28;20039;-59
2022/04/05 06:15:22;;;;;;;9.32;3.00;;;9.60;99.90;;;;;;5039832;28;20041;-61
2022/04/05 06:17:49;;;;;;;11.70;4.53;;;9.60;99.90;;;;;;5037600;28;20088;-60
2022/04/05 06:20:18;;;;;;;10.30;3.33;;;9.60;99.90;;;;;;5040298;28;20037;-61
2022/04/05 06:23:06;;;;;;;12.52;2.95;;;9.70;99.90;;;;;;5040013;28;20065;-60
2022/04/05 06:25:37;;;;;;;10.98;2.60;;;9.70;99.90;;;;;;5039015;28;20032;-61
2022/04/05 06:28:03;;;;;;;;;;;9.70;99.90;;;;;;5036662;28;20737;-60
2022/04/05 06:30:32;;;;;;;11.00;3.25;;;9.70;99.90;;;;;;5040981;28;19939;-60
2022/04/05 06:33:13;;;;;;;10.30;3.22;;;9.80;99.90;;;;;;5045341;28;20063;-60
2022/04/05 06:35:44;;;;;;;8.75;2.80;;;9.80;99.90;;;;;;5042910;28;20041;-59
2022/04/05 06:38:10;;;;;;;13.10;2.78;;;9.80;99.90;;;;;;5039243;28;20071;-61
2022/04/05 06:40:36;;;;;;;9.02;2.63;;;9.80;99.90;;;;;;5041007;28;20044;-60
2022/04/05 06:43:02;;;;;;;13.65;2.80;;;9.80;99.90;;;;;;5047507;28;20033;-61
2022/04/05 06:45:28;;;;;;;9.90;3.25;;;9.90;99.90;;;;;;5040597;28;20048;-60
2022/04/05 06:47:54;;;;;;;10.50;3.55;;;9.90;99.90;;;;;;5026733;28;20029;-59
2022/04/05 06:50:26;;;;;;;13.23;2.83;;;9.90;99.90;;;;;;5039918;28;20512;-60
2022/04/05 06:52:53;;;;;;;9.80;3.05;;;10.00;99.90;;;;;;5037180;28;20037;-60
2022/04/05 06:55:19;;;;;;;9.43;2.50;;;10.00;99.90;;;;;;5038917;28;20552;-60
2022/04/05 06:57:45;;;;;;;8.15;2.10;;;10.10;99.90;;;;;;5036696;28;20052;-59
2022/04/05 07:00:12;;;;;;;6.07;2.28;;;10.10;99.90;;;;;;5036146;28;20732;-61
2022/04/05 07:02:39;;;;;;;9.27;2.60;;;10.20;99.90;;;;;;5033021;28;20256;-61
2022/04/05 07:05:06;;;;;;;5.55;2.25;;;10.20;99.90;;;;;;5038747;28;20029;-60
2022/04/05 07:07:32;;;;;;;10.13;2.50;;;10.10;99.90;;;;;;5037870;28;20040;-62
2022/04/05 07:09:57;;;;;;;11.52;3.03;;;10.10;99.90;;;;;;5035639;28;20044;-61
2022/04/05 07:12:23;;;;;;;7.93;2.58;;;10.00;99.90;;;;;;5038587;28;20037;-59
2022/04/05 07:14:49;;;;;;;13.63;2.72;;;10.00;99.90;;;;;;5043196;28;20033;-59
2022/04/05 07:17:15;;;;;;;12.45;3.42;;;10.10;99.90;;;;;;5042752;28;20033;-59
2022/04/05 07:19:40;;;;;;;11.00;3.17;;;10.10;99.90;;;;;;5043498;28;20033;-61
2022/04/05 07:22:06;;;;;;;10.82;2.70;;;10.10;99.90;;;;;;5035296;28;20083;-58
2022/04/05 07:24:31;;;;;;;6.97;2.78;;;10.20;99.90;;;;;;5040865;28;20106;-59
2022/04/05 07:26:57;;;;;;;7.60;2.45;;;10.30;99.90;;;;;;5046400;28;20094;-60
2022/04/05 07:29:23;;;;;;;7.18;2.13;;;10.40;99.90;;;;;;5039999;28;20033;-62
2022/04/05 07:31:48;;;;;;;11.15;2.33;;;10.40;99.90;;;;;;5044474;28;20599;-61
2022/04/05 07:34:14;;;;;;;8.77;2.03;;;10.40;99.90;;;;;;5044832;28;20481;-61
2022/04/05 07:36:40;;;;;;;10.07;2.50;;;10.40;99.90;;;;;;5044212;28;20037;-61
2022/04/05 07:39:05;;;;;;;10.57;2.28;;;10.30;99.90;;;;;;5047351;28;20064;-60
2022/04/05 07:41:31;;;;;;;7.63;2.88;;;10.30;99.90;;;;;;5037218;28;20492;-59
2022/04/05 07:43:57;;;;;;;5.63;1.77;;;10.30;99.90;;;;;;5043831;28;20759;-59
2022/04/05 07:46:22;;;;;;;7.53;2.05;;;10.30;99.90;;;;;;5043874;28;20033;-62
2022/04/05 07:48:48;;;;;;;7.78;2.15;;;10.30;99.90;;;;;;5043706;28;20033;-61
2022/04/05 07:51:15;;;;;;;5.28;1.95;;;10.40;99.90;;;;;;5037162;28;20040;-61
2022/04/05 07:53:41;;;;;;;9.98;2.55;;;10.40;99.90;;;;;;5045068;28;20115;-60
2022/04/05 07:56:07;;;;;;;9.00;1.85;;;10.50;99.90;;;;;;5041201;28;20333;-62
2022/04/05 07:58:33;;;;;;;4.82;1.75;;;10.60;99.90;;;;;;5041858;28;20598;-60
2022/04/05 08:00:59;;;;;;;7.97;1.45;;;10.70;99.90;;;;;;5042940;28;20040;-60
2022/04/05 08:03:24;;;;;;;4.85;1.20;;;10.70;99.90;;;;;;5044600;28;20036;-62
2022/04/05 08:05:50;;;;;;;5.85;1.80;;;10.80;99.90;;;;;;5039852;28;20030;-59
2022/04/05 08:08:15;;;;;;;5.75;1.60;;;10.80;99.90;;;;;;5043783;28;20116;-61
2022/04/05 08:10:42;;;;;;;3.70;1.13;;;10.80;99.90;;;;;;5042837;28;20055;-59
2022/04/05 08:13:08;;;;;;;8.73;1.55;;;10.90;99.90;;;;;;5042832;28;20028;-62
2022/04/05 08:15:33;;;;;;;8.48;2.40;;;10.90;99.90;;;;;;5044113;28;20032;-59
2022/04/05 08:17:59;;;;;;;4.97;1.50;;;11.00;99.90;;;;;;5042339;28;20037;-60
2022/04/05 08:20:24;;;;;;;4.85;1.30;;;11.20;99.90;;;;;;5040817;28;20055;-60
2022/04/05 08:22:50;;;;;;;2.80;1.55;;;11.30;99.90;;;;;;5041296;28;20040;-59
2022/04/05 08:25:17;;;;;;;4.47;1.25;;;11.40;99.90;;;;;;5044353;28;20449;-59
2022/04/05 08:27:47;;;;;;;7.80;1.45;;;11.50;99.90;;;;;;5043238;28;20127;-63
2022/04/05 08:30:15;;;;;;;5.55;1.55;;;11.50;99.90;;;;;;5041939;28;20152;-62
2022/04/05 08:32:42;;;;;;;8.85;1.65;;;11.50;99.90;;;;;;5042392;28;20393;-60
2022/04/05 08:35:14;;;;;;;4.50;1.40;;;11.60;99.90;;;;;;5040755;28;20485;-60
2022/04/05 08:37:40;;;;;;;2.97;1.50;;;11.50;99.90;;;;;;5040076;28;20134;-60
2022/04/05 08:40:07;;;;;;;3.80;1.85;;;11.50;99.90;;;;;;5042706;28;20029;-62
2022/04/05 08:42:37;;;;;;;4.53;1.50;;;11.50;99.90;;;;;;5043771;28;20045;-61
2022/04/05 08:45:23;;;;;;;12.50;2.60;;;11.40;99.90;;;;;;5043462;28;20071;-61
2022/04/05 08:47:52;;;;;;;4.57;1.35;;;11.50;99.90;;;;;;5039157;28;20102;-60
2022/04/05 08:50:24;;;;;;;6.70;2.55;;;11.40;99.90;;;;;;5043357;28;20091;-61
2022/04/05 08:52:50;;;;;;;8.35;1.88;;;11.30;99.90;;;;;;5043958;28;20036;-63
2022/04/05 08:55:16;;;;;;;4.35;1.77;;;11.30;99.90;;;;;;5039000;28;20570;-60
2022/04/05 08:57:42;;;;;;;3.80;1.50;;;11.20;99.90;;;;;;5023017;28;20037;-60
2022/04/05 09:00:10;;;;;;;7.65;1.70;;;11.10;99.90;;;;;;5040337;28;20040;-61
2022/04/05 09:02:36;;;;;;;4.22;1.50;;;11.10;99.90;;;;;;5043025;28;20152;-60
2022/04/05 09:05:03;;;;;;;5.95;1.92;;;11.00;99.90;;;;;;5039895;28;20396;-60
2022/04/05 09:07:31;;;;;;;4.57;2.05;;;10.90;99.90;;;;;;5042399;28;20032;-62
2022/04/05 09:10:09;;;;;;;6.00;2.35;;;10.90;99.90;;;;;;5043149;28;20040;-63
2022/04/05 09:12:45;;;;;;;7.43;1.88;;;10.90;99.90;;;;;;5039908;28;20098;-62
2022/04/05 09:15:24;;;;;;;5.60;2.08;;;10.90;99.90;;;;;;5038905;28;20033;-61
2022/04/05 09:17:50;;;;;;;5.32;1.67;;;10.90;99.90;;;;;;5039160;28;20503;-59
2022/04/05 09:20:18;;;;;;;5.25;1.92;;;10.90;99.90;;;;;;5042168;28;20219;-61
2022/04/05 09:22:45;;;;;;;5.10;2.20;;;11.00;99.90;;;;;;5039034;28;20033;-62
2022/04/05 09:25:10;;;;;;;6.13;2.20;;;11.10;99.90;;;;;;5041111;28;20397;-60
2022/04/05 09:27:54;;;;;;;5.78;2.08;;;11.20;99.90;;;;;;5040823;28;20048;-61
2022/04/05 09:30:27;;;;;;;4.50;1.67;;;11.30;99.90;;;;;;5037290;28;20044;-60
2022/04/05 09:32:54;;;;;;;7.80;2.28;;;11.50;99.90;;;;;;5043408;28;20032;-60
2022/04/05 09:35:22;;;;;;;8.30;2.50;;;11.40;99.90;;;;;;5039895;28;20033;-63
2022/04/05 09:37:48;;;;;;;4.95;1.85;;;11.50;99.90;;;;;;5041824;28;20037;-62
2022/04/05 09:40:17;;;;;;;2.80;1.33;;;11.50;99.90;;;;;;5037749;28;20044;-61
2022/04/05 09:43:07;;;;;;;7.18;2.05;;;11.50;99.90;;;;;;5040141;28;20036;-60
2022/04/05 09:45:53;;;;;;;6.53;1.27;;;11.50;99.90;;;;;;5042222;28;20033;-60
2022/04/05 09:48:21;;;;;;;8.40;2.03;;;11.50;99.90;;;;;;5036930;28;20044;-61
2022/04/05 09:51:11;;;;;;;5.63;1.70;;;11.50;99.90;;;;;;5031800;28;20536;-62
2022/04/05 09:53:44;;;;;;;3.78;2.15;;;11.50;99.90;;;;;;5026263;28;20044;-62
2022/04/05 09:56:19;;;;;;;7.43;2.03;;;11.50;99.90;;;;;;5038108;28;20044;-61
2022/04/05 09:58:51;;;;;;;4.43;1.45;;;11.60;99.90;;;;;;5039381;28;20052;-61
2022/04/05 10:01:18;;;;;;;7.30;1.48;;;11.50;99.90;;;;;;5031791;28;20029;-60
2022/04/05 10:04:02;;;;;;;5.15;2.15;;;11.60;99.90;;;;;;5040179;28;20029;-60
2022/04/05 10:06:30;;;;;;;10.57;1.92;;;11.40;99.90;;;;;;5039572;28;20117;-62
2022/04/05 10:08:56;;;;;;;2.75;1.27;;;11.50;99.90;;;;;;5038244;28;20027;-61
2022/04/05 10:11:33;;;;;;;4.45;1.83;;;11.40;99.90;;;;;;5035419;28;20116;-61
2022/04/05 10:13:59;;;;;;;6.47;1.50;;;11.50;99.90;;;;;;5036654;28;20060;-61
2022/04/05 10:16:28;;;;;;;6.00;1.60;;;11.40;99.90;;;;;;5038797;28;20052;-61
2022/04/05 10:18:58;;;;;;;3.90;1.45;;;11.40;99.90;;;;;;5020559;28;20021;-61
2022/04/05 10:21:26;;;;;;;5.78;1.60;;;11.40;99.90;;;;;;5035922;28;20036;-61
2022/04/05 10:23:54;;;;;;;5.60;1.40;;;11.50;99.90;;;;;;5036587;28;20534;-60
2022/04/05 10:26:24;;;;;;;5.05;1.08;;;11.60;99.90;;;;;;5039148;28;20060;-60
2022/04/05 10:28:51;;;;;;;;;;;11.60;99.90;;;;;;5039394;28;20032;-60
2022/04/05 10:31:41;;;;;;;4.60;1.60;;;11.60;99.90;;;;;;5035492;28;19925;-61
2022/04/05 10:34:10;;;;;;;3.70;1.40;;;11.50;99.90;;;;;;5036741;28;20127;-61
2022/04/05 10:36:36;;;;;;;5.30;1.85;;;11.60;99.90;;;;;;5038855;28;20444;-60
2022/04/05 10:39:22;;;;;;;9.07;1.35;;;11.60;99.90;;;;;;5038286;28;20025;-61
2022/04/05 10:42:10;;;;;;;4.80;1.42;;;11.60;99.90;;;;;;5035950;28;20135;-62
2022/04/05 10:44:37;;;;;;;4.35;1.95;;;11.80;99.90;;;;;;5036030;28;20044;-62
2022/04/05 10:47:06;;;;;;;7.90;1.52;;;11.80;99.90;;;;;;5037020;28;20025;-61
2022/04/05 10:49:47;;;;;;;6.50;2.25;;;12.00;99.90;;;;;;5039373;28;20037;-61
2022/04/05 10:52:23;;;;;;;5.15;1.95;;;12.00;99.90;;;;;;5034626;28;20048;-61
2022/04/05 10:55:08;;;;;;;5.07;1.60;;;12.10;99.90;;;;;;5035349;28;20033;-60
2022/04/05 10:57:43;;;;;;;3.08;1.02;;;12.20;99.90;;;;;;5035608;28;20071;-62
2022/04/05 11:00:11;;;;;;;2.55;0.90;;;12.30;99.90;;;;;;5035058;28;20041;-60
2022/04/05 11:02:43;;;;;;;4.85;1.88;;;12.40;99.90;;;;;;5039205;28;20041;-64
2022/04/05 11:05:15;;;;;;;3.65;1.63;;;12.50;99.90;;;;;;5042431;28;20055;-62
2022/04/05 11:07:52;;;;;;;2.63;1.13;;;12.70;99.90;;;;;;5042210;28;20041;-61
2022/04/05 11:10:36;;;;;;;8.90;1.52;;;12.70;99.90;;;;;;5038725;28;20037;-60
2022/04/05 11:13:07;;;;;;;4.85;1.58;;;12.70;99.90;;;;;;5044046;28;20705;-63
2022/04/05 11:15:42;;;;;;;3.83;1.42;;;12.70;99.90;;;;;;5044118;28;20033;-63
2022/04/05 11:18:15;;;;;;;6.22;1.63;;;12.70;99.90;;;;;;5040744;28;20564;-61
2022/04/05 11:20:43;;;;;;;2.90;1.23;;;12.80;99.90;;;;;;5043054;28;20029;-60
2022/04/05 11:23:10;;;;;;;6.25;1.63;;;12.70;99.90;;;;;;5041387;28;20098;-61
2022/04/05 11:25:36;;;;;;;6.28;1.35;;;12.80;99.90;;;;;;5040632;28;20047;-60
2022/04/05 11:28:19;;;;;;;2.90;1.25;;;12.90;99.90;;;;;;5041648;28;20644;-62
2022/04/05 11:30:48;;;;;;;2.72;1.38;;;12.80;99.90;;;;;;5040490;28;20052;-62
2022/04/05 11:33:32;;;;;;;3.38;1.55;;;12.90;99.90;;;;;;5042647;28;20041;-63
2022/04/05 11:36:02;;;;;;;6.88;1.00;;;12.80;99.90;;;;;;5041810;28;20512;-61
2022/04/05 11:38:45;;;;;;;5.45;1.50;;;12.80;99.90;;;;;;5041872;28;20060;-61
2022/04/05 11:41:11;;;;;;;14.15;2.13;;;12.80;99.90;;;;;;5036940;28;20056;-61
2022/04/05 11:43:45;;;;;;;5.25;1.63;;;12.70;99.90;;;;;;5042530;28;20044;-61
2022/04/05 11:46:18;;;;;;;6.45;1.63;;;12.60;99.90;;;;;;5041151;28;20041;-61
2022/04/05 11:48:55;;;;;;;7.53;1.77;;;12.50;99.90;;;;;;5045149;28;20033;-61
2022/04/05 11:51:28;;;;;;;2.85;1.30;;;12.40;99.90;;;;;;5042370;28;20051;-64
2022/04/05 11:54:09;;;;;;;4.30;1.67;;;12.40;99.90;;;;;;5041409;28;20029;-62
2022/04/05 11:56:36;;;;;;;5.45;2.08;;;12.30;99.90;;;;;;5040602;28;20587;-62
2022/04/05 11:59:04;;;;;;;6.53;2.05;;;12.30;99.90;;;;;;5041383;28;20515;-61
2022/04/05 12:01:36;;;;;;;4.15;1.48;;;12.40;99.90;;;;;;5040562;28;20040;-59
2022/04/05 12:04:09;;;;;;;3.83;1.70;;;12.50;99.90;;;;;;5041650;28;20040;-63
2022/04/05 12:06:38;;;;;;;3.00;1.40;;;12.70;99.90;;;;;;5040930;28;20052;-60
2022/04/05 12:09:10;;;;;;;5.78;2.17;;;12.90;99.90;;;;;;5035903;28;20040;-62
2022/04/05 12:11:38;;;;;;;4.10;1.23;;;13.00;99.90;;;;;;5041887;28;20029;-62
2022/04/05 12:14:06;;;;;;;3.80;1.55;;;13.20;99.90;;;;;;5042966;28;20250;-60
2022/04/05 12:16:56;;;;;;;5.13;1.92;;;13.30;99.90;;;;;;5042076;28;20036;-61
2022/04/05 12:19:39;;;;;;;3.22;1.42;;;13.30;99.90;;;;;;5021397;28;20021;-62
2022/04/05 12:22:10;;;;;;;3.05;1.40;;;13.20;99.90;;;;;;5040092;28;20032;-62
2022/04/05 12:24:41;;;;;;;16.02;2.85;;;13.20;99.90;;;;;;5038225;28;20037;-60
2022/04/05 12:27:07;;;;;;;3.08;1.40;;;13.30;99.90;;;;;;5036428;28;20119;-61
2022/04/05 12:29:41;;;;;;;5.20;1.80;;;13.30;99.90;;;;;;5040760;28;20589;-62
2022/04/05 12:32:12;;;;;;;3.13;1.63;;;13.30;99.90;;;;;;5038045;28;20037;-61
2022/04/05 12:34:38;;;;;;;;;;;13.30;99.90;;;;;;5025258;28;20443;-62
2022/04/05 12:37:12;;;;;;;5.38;1.90;;;13.30;99.90;;;;;;5039541;28;19920;-61
2022/04/05 12:39:46;;;;;;;6.20;1.92;;;13.30;99.90;;;;;;5038988;28;20112;-63
2022/04/05 12:42:12;;;;;;;6.35;1.95;;;13.20;99.90;;;;;;5043112;28;20040;-61
2022/04/05 12:44:41;;;;;;;3.70;1.75;;;13.20;99.90;;;;;;5043432;28;20030;-63
2022/04/05 12:47:20;;;;;;;4.70;1.77;;;13.10;99.90;;;;;;5042475;28;20409;-61
2022/04/05 12:49:49;;;;;;;4.45;1.83;;;13.10;99.90;;;;;;5039846;28;20490;-63
2022/04/05 12:52:21;;;;;;;7.78;2.08;;;13.00;99.90;;;;;;5036917;28;20033;-62
2022/04/05 12:54:53;;;;;;;4.22;1.70;;;12.90;99.90;;;;;;5038891;28;20041;-63
2022/04/05 12:57:30;;;;;;;5.10;1.85;;;12.80;99.90;;;;;;5040041;28;20176;-63
2022/04/05 13:00:11;;;;;;;3.08;1.95;;;12.70;99.90;;;;;;5043992;28;20040;-60